createdAt,value
2018-12-21T00:01:17.504Z,69.80
2018-12-21T00:03:47.137Z,63.77
2018-12-21T00:06:16.880Z,70.37
2018-12-21T00:08:46.576Z,58.60
2018-12-21T00:11:16.583Z,72.83
2018-12-21T00:13:46.233Z,67.73
2018-12-21T00:16:15.911Z,64.63
2018-12-21T00:18:46.738Z,60.13
2018-12-21T00:21:21.735Z,60.93
2018-12-21T00:23:46.053Z,72.77
2018-12-21T00:26:15.695Z,67.63
2018-12-21T00:28:46.489Z,65.30
2018-12-21T00:31:21.558Z,68.33
2018-12-21T00:33:56.837Z,68.70
2018-12-21T00:36:32.042Z,57.60
2018-12-21T00:39:07.072Z,62.23
2018-12-21T00:41:35.998Z,68.60
2018-12-21T00:44:10.823Z,58.60
2018-12-21T00:46:44.363Z,59.80
2018-12-21T00:49:14.042Z,56.57
2018-12-21T00:51:43.682Z,57.93
2018-12-21T00:54:13.451Z,68.10
2018-12-21T00:56:43.131Z,55.30
2018-12-21T00:59:12.748Z,55.20
2018-12-21T01:01:42.363Z,64.77
2018-12-21T01:04:12.027Z,62.03
2018-12-21T01:06:41.651Z,61.07
2018-12-21T01:09:11.326Z,56.30
2018-12-21T01:11:40.982Z,60.77
2018-12-21T01:14:10.685Z,60.63
2018-12-21T01:16:40.317Z,58.57
2018-12-21T01:19:10.001Z,55.13
2018-12-21T01:21:40.960Z,53.47
2018-12-21T01:24:10.612Z,56.87
2018-12-21T01:26:40.291Z,60.40
2018-12-21T01:29:11.229Z,53.27
2018-12-21T01:31:40.961Z,58.07
2018-12-21T01:34:10.610Z,59.77
2018-12-21T01:36:40.338Z,54.67
2018-12-21T01:39:10.202Z,58.20
2018-12-21T01:41:39.869Z,57.00
2018-12-21T01:44:09.489Z,57.90
2018-12-21T01:46:39.226Z,55.27
2018-12-21T01:49:08.854Z,51.50
2018-12-21T01:51:46.822Z,55.73
2018-12-21T01:54:09.424Z,54.43
2018-12-21T01:56:39.074Z,53.53
2018-12-21T01:59:08.781Z,54.90
2018-12-21T02:01:38.461Z,48.63
2018-12-21T02:04:08.139Z,51.13
2018-12-21T02:06:37.803Z,56.87
2018-12-21T02:09:07.918Z,53.37
2018-12-21T02:11:37.535Z,65.57
2018-12-21T02:14:07.197Z,54.23
2018-12-21T02:16:36.850Z,54.70
2018-12-21T02:19:06.638Z,51.90
2018-12-21T02:21:36.439Z,56.07
2018-12-21T02:24:07.237Z,56.20
2018-12-21T02:26:36.907Z,50.33
2018-12-21T02:29:06.542Z,50.07
2018-12-21T02:31:36.217Z,55.97
2018-12-21T02:34:05.991Z,52.07
2018-12-21T02:36:35.660Z,51.47
2018-12-21T02:39:06.302Z,59.50
2018-12-21T02:41:35.985Z,61.17
2018-12-21T02:44:05.648Z,61.17
2018-12-21T02:46:35.293Z,59.80
2018-12-21T02:49:04.975Z,58.53
2018-12-21T02:51:34.619Z,54.57
2018-12-21T02:54:04.340Z,58.73
2018-12-21T02:56:33.990Z,61.77
2018-12-21T02:59:03.617Z,57.50
2018-12-21T03:01:34.585Z,58.10
2018-12-21T03:04:04.272Z,46.73
2018-12-21T03:06:35.054Z,48.87
2018-12-21T03:09:08.985Z,54.20
2018-12-21T03:11:38.639Z,58.10
2018-12-21T03:14:08.278Z,60.17
2018-12-21T03:16:37.930Z,63.23
2018-12-21T03:19:07.667Z,61.33
2018-12-21T03:21:37.322Z,63.27
2018-12-21T03:24:06.970Z,54.13
2018-12-21T03:26:36.651Z,54.30
2018-12-21T03:29:06.333Z,58.33
2018-12-21T03:31:36.085Z,67.47
2018-12-21T03:34:05.754Z,68.70
2018-12-21T03:36:35.465Z,61.50
2018-12-21T03:39:07.284Z,68.03
2018-12-21T03:41:37.555Z,67.37
2018-12-21T03:44:07.210Z,64.60
2018-12-21T03:46:36.847Z,63.47
2018-12-21T03:49:06.589Z,55.90
2018-12-21T03:51:36.235Z,56.53
2018-12-21T03:54:05.992Z,61.93
2018-12-21T03:56:35.701Z,57.53
2018-12-21T03:59:05.344Z,52.83
2018-12-21T04:01:34.993Z,75.77
2018-12-21T04:04:04.627Z,71.73
2018-12-21T04:06:34.270Z,72.90
2018-12-21T04:09:04.265Z,74.00
2018-12-21T04:11:33.937Z,73.30
2018-12-21T04:14:03.571Z,72.17
2018-12-21T04:16:33.270Z,70.97
2018-12-21T04:19:03.007Z,84.75
2018-12-21T04:21:33.671Z,68.33
2018-12-21T04:24:03.353Z,59.07
2018-12-21T04:26:33.026Z,66.40
2018-12-21T04:29:02.728Z,51.37
2018-12-21T04:31:32.394Z,54.10
2018-12-21T04:34:02.046Z,53.10
2018-12-21T04:36:31.807Z,53.23
2018-12-21T04:39:01.359Z,56.87
2018-12-21T04:41:31.050Z,48.57
2018-12-21T04:44:00.678Z,47.90
2018-12-21T04:46:30.319Z,48.57
2018-12-21T04:49:00.029Z,50.53
2018-12-21T04:52:33.048Z,48.40
2018-12-21T04:55:02.775Z,48.30
2018-12-21T04:57:32.431Z,55.90
2018-12-21T05:00:02.090Z,49.97
2018-12-21T05:02:31.763Z,48.23
2018-12-21T05:05:02.742Z,44.63
2018-12-21T05:07:32.384Z,45.33
2018-12-21T05:10:02.016Z,52.23
2018-12-21T05:12:31.675Z,48.10
2018-12-21T05:15:01.384Z,53.87
2018-12-21T05:17:31.166Z,88.57
2018-12-21T05:20:00.846Z,101.90
2018-12-21T05:22:30.498Z,120.60
2018-12-21T05:25:01.484Z,94.80
2018-12-21T05:27:31.229Z,71.23
2018-12-21T05:30:00.886Z,66.93
2018-12-21T05:32:30.546Z,71.13
2018-12-21T05:35:01.518Z,64.17
2018-12-21T05:37:31.165Z,63.13
2018-12-21T05:40:00.803Z,62.27
2018-12-21T05:42:30.477Z,61.60
2018-12-21T05:45:02.803Z,59.57
2018-12-21T05:47:32.443Z,52.33
2018-12-21T05:50:02.146Z,53.63
2018-12-21T05:52:31.800Z,49.17
2018-12-21T05:55:01.422Z,47.57
2018-12-21T05:57:33.434Z,48.47
2018-12-21T06:00:03.086Z,48.47
2018-12-21T06:02:32.746Z,49.37
2018-12-21T06:05:02.414Z,45.03
2018-12-21T06:07:33.875Z,45.40
2018-12-21T06:10:01.796Z,47.30
2018-12-21T06:12:31.449Z,45.50
2018-12-21T06:15:01.104Z,45.00
2018-12-21T06:17:32.188Z,44.87
2018-12-21T06:20:01.814Z,42.03
2018-12-21T06:22:31.453Z,43.77
2018-12-21T06:25:01.121Z,42.57
2018-12-21T06:27:30.750Z,44.77
2018-12-21T06:30:00.786Z,43.20
2018-12-21T06:32:30.442Z,50.70
2018-12-21T06:35:00.104Z,50.10
2018-12-21T06:37:29.787Z,54.30
2018-12-21T06:39:59.459Z,51.50
2018-12-21T06:42:29.090Z,58.17
2018-12-21T06:44:58.788Z,55.97
2018-12-21T06:47:28.448Z,64.73
2018-12-21T06:49:58.085Z,59.57
2018-12-21T06:52:27.705Z,70.77
2018-12-21T06:54:57.341Z,69.07
2018-12-21T06:57:27.009Z,64.80
2018-12-21T06:59:56.632Z,65.47
2018-12-21T07:02:26.285Z,69.10
2018-12-21T07:04:55.910Z,83.40
2018-12-21T07:07:25.556Z,81.70
2018-12-21T07:09:55.199Z,61.63
2018-12-21T07:12:24.865Z,85.90
2018-12-21T07:14:54.542Z,85.50
2018-12-21T07:17:25.512Z,66.23
2018-12-21T07:19:55.150Z,65.37
2018-12-21T07:22:24.822Z,61.70
2018-12-21T07:24:54.490Z,64.80
2018-12-21T07:27:25.320Z,64.27
2018-12-21T07:29:55.210Z,63.67
2018-12-21T07:32:24.914Z,72.77
2018-12-21T07:34:54.554Z,102.10
2018-12-21T07:37:24.188Z,91.97
2018-12-21T07:39:53.872Z,85.97
2018-12-21T07:42:23.550Z,79.77
2018-12-21T07:44:53.190Z,76.23
2018-12-21T07:47:22.813Z,69.83
2018-12-21T07:49:53.705Z,65.23
2018-12-21T07:52:23.324Z,61.37
2018-12-21T07:54:53.029Z,89.17
2018-12-21T07:57:22.621Z,83.93
2018-12-21T07:59:52.624Z,84.63
2018-12-21T08:02:22.212Z,77.63
2018-12-21T08:04:51.922Z,82.23
2018-12-21T08:07:21.583Z,87.23
2018-12-21T08:09:53.610Z,76.03
2018-12-21T08:12:23.275Z,73.97
2018-12-21T08:14:52.903Z,69.10
2018-12-21T08:17:23.870Z,70.73
2018-12-21T08:19:53.581Z,68.17
2018-12-21T08:22:23.272Z,66.40
2018-12-21T08:24:52.932Z,64.87
2018-12-21T08:27:22.570Z,64.17
2018-12-21T08:29:52.213Z,63.07
2018-12-21T08:32:21.947Z,60.40
2018-12-21T08:34:54.128Z,55.47
2018-12-21T08:37:23.825Z,52.83
2018-12-21T08:39:53.475Z,52.97
2018-12-21T08:42:23.111Z,54.13
2018-12-21T08:44:52.816Z,51.17
2018-12-21T08:47:22.453Z,54.63
2018-12-21T08:49:52.082Z,57.90
2018-12-21T08:52:21.750Z,53.43
2018-12-21T08:54:51.399Z,51.33
2018-12-21T08:57:21.103Z,52.00
2018-12-21T08:59:50.774Z,47.13
2018-12-21T09:02:21.175Z,51.67
2018-12-21T09:04:50.155Z,51.43
2018-12-21T09:07:19.823Z,47.20
2018-12-21T09:09:49.491Z,45.40
2018-12-21T09:12:20.480Z,44.57
2018-12-21T09:14:50.131Z,44.10
2018-12-21T09:17:19.792Z,49.73
2018-12-21T09:19:50.707Z,47.97
2018-12-21T09:22:20.338Z,53.33
2018-12-21T09:24:52.498Z,58.07
2018-12-21T09:27:22.158Z,53.20
2018-12-21T09:29:51.801Z,54.67
2018-12-21T09:32:21.499Z,64.60
2018-12-21T09:34:51.174Z,60.37
2018-12-21T09:37:20.935Z,58.03
2018-12-21T09:39:50.587Z,58.13
2018-12-21T09:42:20.342Z,65.43
2018-12-21T09:44:52.679Z,64.83
2018-12-21T09:47:19.662Z,64.13
2018-12-21T09:49:49.304Z,74.53
2018-12-21T09:52:18.963Z,74.73
2018-12-21T09:54:48.607Z,77.53
2018-12-21T09:57:19.545Z,72.00
2018-12-21T09:59:49.192Z,69.13
2018-12-21T10:02:18.841Z,66.80
2018-12-21T10:04:48.581Z,66.37
2018-12-21T10:07:18.231Z,57.57
2018-12-21T10:09:47.938Z,54.40
2018-12-21T10:12:17.673Z,66.43
2018-12-21T10:14:48.643Z,57.17
2018-12-21T10:17:18.230Z,60.80
2018-12-21T10:19:47.947Z,61.60
2018-12-21T10:22:17.665Z,73.57
2018-12-21T10:24:47.342Z,64.67
2018-12-21T10:27:18.418Z,62.27
2018-12-21T10:29:48.054Z,56.23
2018-12-21T10:32:17.721Z,104.50
2018-12-21T10:34:47.426Z,73.33
2018-12-21T10:37:17.133Z,73.40
2018-12-21T10:39:48.210Z,80.50
2018-12-21T10:42:17.851Z,76.53
2018-12-21T10:44:47.596Z,82.33
2018-12-21T10:47:17.286Z,82.83
2018-12-21T10:49:47.052Z,83.43
2018-12-21T10:52:16.710Z,81.53
2018-12-21T10:54:46.467Z,82.10
2018-12-21T10:57:16.238Z,90.30
2018-12-21T10:59:48.460Z,86.47
2018-12-21T11:02:18.141Z,86.07
2018-12-21T11:04:47.851Z,82.90
2018-12-21T11:07:17.529Z,91.87
2018-12-21T11:09:47.350Z,81.57
2018-12-21T11:12:18.170Z,80.00
2018-12-21T11:14:50.282Z,76.90
2018-12-21T11:17:21.184Z,79.57
2018-12-21T11:19:50.950Z,79.50
2018-12-21T11:22:20.615Z,80.80
2018-12-21T11:24:50.279Z,82.30
2018-12-21T11:27:22.519Z,77.20
2018-12-21T11:29:52.214Z,74.47
2018-12-21T11:32:21.925Z,83.43
2018-12-21T11:34:51.630Z,83.60
2018-12-21T11:37:21.277Z,94.10
2018-12-21T11:39:52.277Z,92.27
2018-12-21T11:42:21.985Z,85.93
2018-12-21T11:44:51.680Z,81.90
2018-12-21T11:47:21.355Z,79.37
2018-12-21T11:49:51.103Z,73.67
2018-12-21T11:52:20.785Z,83.07
2018-12-21T11:54:50.671Z,86.27
2018-12-21T11:57:20.382Z,75.33
2018-12-21T11:59:50.140Z,75.27
2018-12-21T12:02:19.895Z,84.23
2018-12-21T12:04:49.405Z,87.93
2018-12-21T12:07:20.499Z,75.23
2018-12-21T12:09:50.204Z,55.97
2018-12-21T12:12:19.841Z,55.77
2018-12-21T12:14:50.780Z,48.13
2018-12-21T12:17:20.465Z,35.03
2018-12-21T12:19:50.134Z,30.43
2018-12-21T12:22:19.837Z,35.03
2018-12-21T12:24:52.952Z,37.13
2018-12-21T12:27:19.158Z,59.97
2018-12-21T12:29:48.813Z,54.77
2018-12-21T12:32:18.460Z,35.50
2018-12-21T12:34:48.139Z,34.03
2018-12-21T12:37:17.759Z,32.57
2018-12-21T12:39:47.373Z,29.43
2018-12-21T12:42:17.045Z,30.60
2018-12-21T12:44:46.657Z,30.60
2018-12-21T12:47:16.311Z,34.30
2018-12-21T12:49:47.156Z,33.00
2018-12-21T12:52:16.800Z,30.63
2018-12-21T12:54:46.478Z,30.50
2018-12-21T12:57:16.100Z,31.43
2018-12-21T12:59:45.762Z,28.63
2018-12-21T13:02:15.437Z,35.40
2018-12-21T13:04:45.086Z,72.93
2018-12-21T13:07:14.838Z,35.40
2018-12-21T13:09:44.494Z,39.13
2018-12-21T13:12:15.424Z,39.10
2018-12-21T13:14:45.052Z,45.67
2018-12-21T13:17:15.991Z,45.80
2018-12-21T13:19:45.627Z,42.33
2018-12-21T13:22:16.453Z,47.00
2018-12-21T13:24:47.321Z,49.07
2018-12-21T13:27:17.064Z,58.90
2018-12-21T13:29:46.743Z,55.73
2018-12-21T13:32:16.381Z,57.10
2018-12-21T13:34:46.021Z,57.17
2018-12-21T13:37:15.707Z,60.00
2018-12-21T13:39:45.458Z,60.67
2018-12-21T13:42:15.984Z,68.77
2018-12-21T13:44:46.845Z,73.03
2018-12-21T13:47:16.610Z,65.77
2018-12-21T13:49:47.518Z,80.97
2018-12-21T13:52:17.210Z,79.30
2018-12-21T13:54:46.903Z,89.37
2018-12-21T13:57:16.557Z,80.37
2018-12-21T13:59:46.198Z,76.10
2018-12-21T14:02:15.896Z,76.47
2018-12-21T14:04:45.648Z,74.43
2018-12-21T14:07:15.397Z,72.67
2018-12-21T14:09:45.074Z,68.73
2018-12-21T14:12:16.034Z,64.93
2018-12-21T14:14:45.657Z,62.67
2018-12-21T14:17:15.309Z,59.47
2018-12-21T14:19:44.970Z,60.00
2018-12-21T14:22:14.620Z,56.17
2018-12-21T14:24:44.309Z,75.37
2018-12-21T14:27:13.962Z,63.67
2018-12-21T14:29:43.634Z,58.60
2018-12-21T14:32:14.625Z,56.53
2018-12-21T14:34:44.249Z,66.27
2018-12-21T14:37:13.917Z,74.03
2018-12-21T14:39:44.877Z,69.30
2018-12-21T14:42:14.527Z,72.27
2018-12-21T14:44:44.177Z,64.40
2018-12-21T14:47:15.545Z,63.63
2018-12-21T14:49:45.161Z,63.10
2018-12-21T14:52:14.799Z,61.93
2018-12-21T14:54:45.694Z,58.53
2018-12-21T14:57:16.559Z,57.43
2018-12-21T14:59:46.226Z,54.20
2018-12-21T15:02:15.854Z,57.23
2018-12-21T15:04:45.485Z,59.13
2018-12-21T15:07:16.633Z,95.03
2018-12-21T15:09:46.266Z,64.63
2018-12-21T15:12:15.888Z,74.50
2018-12-21T15:14:46.754Z,70.87
2018-12-21T15:17:17.692Z,77.93
2018-12-21T15:19:47.381Z,120.67
2018-12-21T15:22:17.039Z,99.40
2018-12-21T15:24:46.670Z,94.20
2018-12-21T15:27:16.508Z,107.43
2018-12-21T15:29:47.551Z,71.63
2018-12-21T15:32:17.183Z,49.67
2018-12-21T15:34:46.812Z,36.13
2018-12-21T15:37:16.459Z,33.77
2018-12-21T15:39:46.182Z,33.30
2018-12-21T15:42:17.581Z,36.90
2018-12-21T15:44:49.601Z,27.40
2018-12-21T15:47:19.226Z,28.73
2018-12-21T15:49:48.908Z,29.30
2018-12-21T15:52:18.586Z,37.03
2018-12-21T15:54:48.224Z,45.37
2018-12-21T15:57:17.893Z,39.73
2018-12-21T15:59:49.911Z,42.17
2018-12-21T16:02:19.574Z,32.00
2018-12-21T16:04:50.650Z,27.33
2018-12-21T16:07:20.282Z,36.27
2018-12-21T16:09:51.215Z,32.50
2018-12-21T16:12:20.881Z,35.97
2018-12-21T16:14:50.534Z,35.30
2018-12-21T16:17:20.207Z,33.90
2018-12-21T16:19:51.178Z,34.43
2018-12-21T16:22:20.794Z,37.20
2018-12-21T16:24:50.463Z,37.57
2018-12-21T16:27:20.134Z,35.80
2018-12-21T16:29:49.770Z,34.87
2018-12-21T16:32:19.467Z,33.77
2018-12-21T16:34:49.137Z,31.37
2018-12-21T16:37:18.767Z,30.60
2018-12-21T16:39:48.410Z,30.83
2018-12-21T16:42:18.040Z,30.47
2018-12-21T16:44:47.685Z,31.07
2018-12-21T16:47:17.375Z,30.43
2018-12-21T16:49:47.055Z,29.27
2018-12-21T16:52:16.679Z,32.10
2018-12-21T16:54:47.622Z,36.87
2018-12-21T16:57:17.265Z,33.53
2018-12-21T16:59:48.167Z,29.37
2018-12-21T17:02:17.784Z,26.90
2018-12-21T17:04:47.445Z,34.73
2018-12-21T17:07:18.421Z,31.40
2018-12-21T17:09:50.504Z,30.03
2018-12-21T17:12:22.659Z,27.83
2018-12-21T17:14:52.280Z,27.40
2018-12-21T17:17:21.967Z,28.50
2018-12-21T17:19:52.903Z,29.60
2018-12-21T17:22:22.515Z,31.83
2018-12-21T17:24:52.196Z,35.80
2018-12-21T17:27:21.834Z,35.70
2018-12-21T17:29:52.795Z,37.50
2018-12-21T17:32:22.459Z,36.40
2018-12-21T17:34:56.031Z,37.53
2018-12-21T17:37:26.922Z,34.53
2018-12-21T17:39:56.572Z,33.70
2018-12-21T17:42:26.211Z,32.47
2018-12-21T17:44:55.877Z,30.73
2018-12-21T17:47:25.634Z,35.03
2018-12-21T17:49:55.314Z,34.90
2018-12-21T17:52:24.970Z,30.50
2018-12-21T17:54:54.630Z,35.37
2018-12-21T17:57:24.287Z,33.83
2018-12-21T17:59:53.897Z,34.73
2018-12-21T18:02:23.517Z,33.53
2018-12-21T18:04:53.151Z,32.90
2018-12-21T18:07:26.439Z,34.90
2018-12-21T18:09:58.578Z,32.07
2018-12-21T18:12:28.202Z,34.17
2018-12-21T18:14:59.121Z,35.43
2018-12-21T18:17:28.909Z,40.03
2018-12-21T18:19:58.569Z,42.57
2018-12-21T18:22:30.758Z,45.33
2018-12-21T18:25:03.392Z,46.70
2018-12-21T18:27:35.487Z,48.57
2018-12-21T18:30:10.180Z,44.17
2018-12-21T18:32:40.254Z,44.03
2018-12-21T18:35:19.569Z,41.23
2018-12-21T18:37:57.638Z,41.27
2018-12-21T18:40:28.154Z,39.33
2018-12-21T18:42:57.863Z,40.27
2018-12-21T18:45:27.594Z,41.00
2018-12-21T18:47:58.623Z,45.90
2018-12-21T18:50:29.146Z,58.20
2018-12-21T18:52:58.839Z,58.87
2018-12-21T18:55:28.504Z,61.13
2018-12-21T18:57:58.155Z,54.07
2018-12-21T19:00:27.887Z,48.80
2018-12-21T19:02:57.561Z,49.67
2018-12-21T19:05:28.530Z,49.60
2018-12-21T19:07:59.401Z,50.83
2018-12-21T19:10:30.418Z,51.80
2018-12-21T19:13:00.102Z,57.37
2018-12-21T19:15:29.757Z,56.80
2018-12-21T19:17:59.439Z,57.07
2018-12-21T19:20:29.102Z,56.57
2018-12-21T19:22:58.855Z,55.43
2018-12-21T19:25:28.492Z,63.63
2018-12-21T19:27:58.234Z,60.03
2018-12-21T19:30:30.545Z,56.87
2018-12-21T19:33:00.237Z,54.63
2018-12-21T19:35:30.531Z,61.93
2018-12-21T19:38:00.190Z,56.73
2018-12-21T19:40:31.136Z,59.33
2018-12-21T19:43:01.055Z,61.50
2018-12-21T19:45:30.689Z,51.60
2018-12-21T19:48:00.363Z,59.30
2018-12-21T19:50:30.083Z,54.40
2018-12-21T19:52:59.749Z,58.70
2018-12-21T19:55:42.515Z,54.43
2018-12-21T19:58:12.194Z,55.10
2018-12-21T20:00:43.130Z,51.20
2018-12-21T20:03:12.809Z,45.80
2018-12-21T20:05:42.485Z,41.70
2018-12-21T20:08:12.344Z,47.77
2018-12-21T20:10:41.981Z,34.20
2018-12-21T20:13:11.642Z,39.07
2018-12-21T20:15:41.350Z,47.80
2018-12-21T20:18:11.013Z,45.97
2018-12-21T20:20:42.227Z,44.67
2018-12-21T20:23:13.124Z,52.07
2018-12-21T20:25:42.801Z,48.43
2018-12-21T20:28:12.497Z,48.10
2018-12-21T20:30:42.785Z,44.53
2018-12-21T20:33:14.904Z,48.00
2018-12-21T20:35:45.460Z,46.90
2018-12-21T20:38:21.401Z,47.90
2018-12-21T20:40:47.289Z,50.23
2018-12-21T20:43:17.178Z,43.97
2018-12-21T20:45:48.060Z,46.90
2018-12-21T20:48:17.730Z,49.43
2018-12-21T20:50:47.426Z,46.20
2018-12-21T20:53:18.371Z,44.90
2018-12-21T20:55:48.034Z,45.80
2018-12-21T20:58:27.629Z,46.77
2018-12-21T21:00:57.309Z,39.67
2018-12-21T21:03:27.011Z,49.17
2018-12-21T21:05:57.101Z,41.17
2018-12-21T21:08:27.968Z,46.40
2018-12-21T21:10:58.405Z,45.77
2018-12-21T21:13:29.315Z,43.20
2018-12-21T21:15:59.324Z,45.70
2018-12-21T21:18:30.238Z,43.77
2018-12-21T21:20:59.948Z,41.87
2018-12-21T21:23:29.632Z,41.63
2018-12-21T21:26:00.611Z,45.43
2018-12-21T21:28:30.968Z,43.63
2018-12-21T21:31:01.939Z,47.80
2018-12-21T21:33:31.668Z,47.90
2018-12-21T21:36:01.386Z,45.30
2018-12-21T21:38:33.857Z,48.77
2018-12-21T21:41:03.510Z,40.50
2018-12-21T21:43:33.186Z,51.60
2018-12-21T21:46:02.917Z,50.40
2018-12-21T21:48:32.593Z,42.40
2018-12-21T21:51:02.262Z,42.10
2018-12-21T21:53:33.249Z,43.20
2018-12-21T21:56:02.913Z,45.73
2018-12-21T21:58:32.607Z,49.90
2018-12-21T22:01:02.320Z,51.37
2018-12-21T22:03:32.017Z,39.77
2018-12-21T22:06:01.723Z,50.17
2018-12-21T22:08:31.428Z,47.30
2018-12-21T22:11:01.958Z,45.90
2018-12-21T22:13:30.929Z,48.63
2018-12-21T22:16:00.631Z,46.93
2018-12-21T22:18:30.342Z,45.97
2018-12-21T22:20:59.996Z,45.03
2018-12-21T22:23:29.802Z,44.27
2018-12-21T22:25:59.445Z,47.20
2018-12-21T22:28:29.120Z,41.63
2018-12-21T22:30:58.779Z,39.87
2018-12-21T22:33:28.417Z,38.80
2018-12-21T22:35:58.062Z,45.83
2018-12-21T22:38:27.769Z,42.40
2018-12-21T22:40:58.658Z,48.60
2018-12-21T22:43:28.302Z,43.90
2018-12-21T22:45:58.422Z,47.40
2018-12-21T22:48:28.097Z,51.47
2018-12-21T22:50:57.805Z,47.83
2018-12-21T22:53:27.439Z,48.17
2018-12-21T22:55:58.338Z,50.50
2018-12-21T22:58:28.031Z,43.90
2018-12-21T23:00:58.549Z,48.43
2018-12-21T23:03:28.262Z,45.07
2018-12-21T23:05:59.223Z,43.07
2018-12-21T23:08:28.907Z,49.40
2018-12-21T23:10:58.598Z,45.93
2018-12-21T23:13:29.416Z,41.70
2018-12-21T23:15:59.114Z,43.57
2018-12-21T23:18:31.281Z,49.10
2018-12-21T23:21:00.949Z,46.07
2018-12-21T23:23:30.626Z,53.23
2018-12-21T23:26:00.334Z,49.03
2018-12-21T23:28:32.564Z,47.63
2018-12-21T23:31:02.244Z,36.90
2018-12-21T23:33:31.964Z,41.97
2018-12-21T23:36:01.763Z,47.70
2018-12-21T23:38:31.501Z,47.07
2018-12-21T23:41:03.612Z,49.07
2018-12-21T23:43:34.409Z,50.10
2018-12-21T23:46:04.087Z,43.00
2018-12-21T23:48:33.751Z,51.43
2018-12-21T23:51:03.493Z,42.20
2018-12-21T23:53:33.171Z,40.63
2018-12-21T23:56:02.855Z,44.47
2018-12-21T23:58:32.745Z,46.17
